sensor_id;sensor_type;location;lat;lon;timestamp;P1;durP1;ratioP1;P2;durP2;ratioP2
66927;SDS011;59882;45.624;11.698;2023-03-08T00:00:38;88.47;;;35.80;;
66927;SDS011;59882;45.624;11.698;2023-03-08T00:03:04;89.95;;;36.85;;
66927;SDS011;59882;45.624;11.698;2023-03-08T00:05:30;84.60;;;36.42;;
66927;SDS011;59882;45.624;11.698;2023-03-08T00:07:56;82.80;;;32.53;;
66927;SDS011;59882;45.624;11.698;2023-03-08T00:10:22;83.03;;;34.40;;
66927;SDS011;59882;45.624;11.698;2023-03-08T00:12:48;82.65;;;35.00;;
66927;SDS011;59882;45.624;11.698;2023-03-08T00:15:14;85.17;;;35.93;;
66927;SDS011;59882;45.624;11.698;2023-03-08T00:17:39;82.50;;;33.67;;
66927;SDS011;59882;45.624;11.698;2023-03-08T00:20:06;81.37;;;33.57;;
66927;SDS011;59882;45.624;11.698;2023-03-08T00:22:34;86.60;;;36.50;;
66927;SDS011;59882;45.624;11.698;2023-03-08T00:25:01;83.00;;;36.28;;
66927;SDS011;59882;45.624;11.698;2023-03-08T00:27:26;81.15;;;37.47;;
66927;SDS011;59882;45.624;11.698;2023-03-08T00:29:52;89.30;;;36.57;;
66927;SDS011;59882;45.624;11.698;2023-03-08T00:32:18;89.55;;;36.78;;
66927;SDS011;59882;45.624;11.698;2023-03-08T00:34:43;86.50;;;36.10;;
66927;SDS011;59882;45.624;11.698;2023-03-08T00:37:11;82.97;;;33.47;;
66927;SDS011;59882;45.624;11.698;2023-03-08T00:39:37;85.68;;;35.58;;
66927;SDS011;59882;45.624;11.698;2023-03-08T00:42:03;88.03;;;37.57;;
66927;SDS011;59882;45.624;11.698;2023-03-08T00:44:29;91.47;;;38.67;;
66927;SDS011;59882;45.624;11.698;2023-03-08T00:46:54;94.00;;;42.33;;
66927;SDS011;59882;45.624;11.698;2023-03-08T00:49:20;89.60;;;38.05;;
66927;SDS011;59882;45.624;11.698;2023-03-08T00:51:46;94.97;;;40.17;;
66927;SDS011;59882;45.624;11.698;2023-03-08T00:54:13;91.03;;;40.72;;
66927;SDS011;59882;45.624;11.698;2023-03-08T00:56:39;88.00;;;39.72;;
66927;SDS011;59882;45.624;11.698;2023-03-08T00:59:04;88.95;;;40.70;;
66927;SDS011;59882;45.624;11.698;2023-03-08T01:01:30;92.83;;;40.17;;
66927;SDS011;59882;45.624;11.698;2023-03-08T01:03:56;95.35;;;42.65;;
66927;SDS011;59882;45.624;11.698;2023-03-08T01:06:22;93.10;;;38.37;;
66927;SDS011;59882;45.624;11.698;2023-03-08T01:08:48;91.47;;;38.50;;
66927;SDS011;59882;45.624;11.698;2023-03-08T01:11:14;94.30;;;40.70;;
66927;SDS011;59882;45.624;11.698;2023-03-08T01:13:42;89.70;;;38.40;;
66927;SDS011;59882;45.624;11.698;2023-03-08T01:19:06;94.50;;;40.38;;
66927;SDS011;59882;45.624;11.698;2023-03-08T01:21:31;94.93;;;40.80;;
66927;SDS011;59882;45.624;11.698;2023-03-08T01:23:58;93.57;;;40.03;;
66927;SDS011;59882;45.624;11.698;2023-03-08T01:26:24;91.60;;;39.75;;
66927;SDS011;59882;45.624;11.698;2023-03-08T01:28:51;88.82;;;38.03;;
66927;SDS011;59882;45.624;11.698;2023-03-08T01:31:20;95.60;;;41.67;;
66927;SDS011;59882;45.624;11.698;2023-03-08T01:33:51;89.53;;;39.65;;
66927;SDS011;59882;45.624;11.698;2023-03-08T01:36:18;89.55;;;39.22;;
66927;SDS011;59882;45.624;11.698;2023-03-08T01:38:45;87.32;;;37.75;;
66927;SDS011;59882;45.624;11.698;2023-03-08T01:41:13;88.78;;;38.90;;
66927;SDS011;59882;45.624;11.698;2023-03-08T01:43:41;84.07;;;37.30;;
66927;SDS011;59882;45.624;11.698;2023-03-08T01:46:10;87.95;;;38.55;;
66927;SDS011;59882;45.624;11.698;2023-03-08T01:51:25;89.80;;;38.80;;
66927;SDS011;59882;45.624;11.698;2023-03-08T01:53:58;87.63;;;38.45;;
66927;SDS011;59882;45.624;11.698;2023-03-08T01:56:28;83.22;;;33.65;;
66927;SDS011;59882;45.624;11.698;2023-03-08T01:58:54;87.35;;;34.42;;
66927;SDS011;59882;45.624;11.698;2023-03-08T02:01:21;88.40;;;34.47;;
66927;SDS011;59882;45.624;11.698;2023-03-08T02:03:46;50.30;;;31.93;;
66927;SDS011;59882;45.624;11.698;2023-03-08T02:06:13;88.00;;;36.20;;
66927;SDS011;59882;45.624;11.698;2023-03-08T02:08:40;86.97;;;34.53;;
66927;SDS011;59882;45.624;11.698;2023-03-08T02:11:06;86.38;;;36.53;;
66927;SDS011;59882;45.624;11.698;2023-03-08T02:13:32;80.63;;;34.67;;
66927;SDS011;59882;45.624;11.698;2023-03-08T02:15:58;87.70;;;34.70;;
66927;SDS011;59882;45.624;11.698;2023-03-08T02:18:26;88.40;;;36.08;;
66927;SDS011;59882;45.624;11.698;2023-03-08T02:20:52;86.38;;;36.05;;
66927;SDS011;59882;45.624;11.698;2023-03-08T02:23:22;84.83;;;35.20;;
66927;SDS011;59882;45.624;11.698;2023-03-08T02:26:06;85.03;;;34.13;;
66927;SDS011;59882;45.624;11.698;2023-03-08T02:28:32;84.65;;;32.63;;
66927;SDS011;59882;45.624;11.698;2023-03-08T02:30:58;83.82;;;33.42;;
66927;SDS011;59882;45.624;11.698;2023-03-08T02:33:25;91.07;;;34.47;;
66927;SDS011;59882;45.624;11.698;2023-03-08T02:35:50;86.13;;;35.07;;
66927;SDS011;59882;45.624;11.698;2023-03-08T02:38:17;88.18;;;34.08;;
66927;SDS011;59882;45.624;11.698;2023-03-08T02:40:44;83.20;;;31.75;;
66927;SDS011;59882;45.624;11.698;2023-03-08T02:43:10;87.23;;;35.40;;
66927;SDS011;59882;45.624;11.698;2023-03-08T02:45:36;91.53;;;35.20;;
66927;SDS011;59882;45.624;11.698;2023-03-08T02:48:02;90.72;;;34.38;;
66927;SDS011;59882;45.624;11.698;2023-03-08T02:50:28;88.20;;;33.03;;
66927;SDS011;59882;45.624;11.698;2023-03-08T02:52:55;83.65;;;33.50;;
66927;SDS011;59882;45.624;11.698;2023-03-08T02:55:21;55.38;;;33.95;;
66927;SDS011;59882;45.624;11.698;2023-03-08T02:57:47;92.90;;;35.03;;
66927;SDS011;59882;45.624;11.698;2023-03-08T03:00:12;89.18;;;35.40;;
66927;SDS011;59882;45.624;11.698;2023-03-08T03:02:38;88.63;;;35.80;;
66927;SDS011;59882;45.624;11.698;2023-03-08T03:05:05;87.50;;;33.20;;
66927;SDS011;59882;45.624;11.698;2023-03-08T03:07:34;87.18;;;33.13;;
66927;SDS011;59882;45.624;11.698;2023-03-08T03:10:05;85.93;;;34.75;;
66927;SDS011;59882;45.624;11.698;2023-03-08T03:12:32;88.28;;;36.42;;
66927;SDS011;59882;45.624;11.698;2023-03-08T03:14:57;95.20;;;36.53;;
66927;SDS011;59882;45.624;11.698;2023-03-08T03:17:24;87.45;;;33.22;;
66927;SDS011;59882;45.624;11.698;2023-03-08T03:19:50;93.10;;;33.50;;
66927;SDS011;59882;45.624;11.698;2023-03-08T03:22:15;86.10;;;34.70;;
66927;SDS011;59882;45.624;11.698;2023-03-08T03:24:41;89.87;;;36.27;;
66927;SDS011;59882;45.624;11.698;2023-03-08T03:27:06;87.27;;;34.70;;
66927;SDS011;59882;45.624;11.698;2023-03-08T03:29:32;84.53;;;33.90;;
66927;SDS011;59882;45.624;11.698;2023-03-08T03:31:58;87.87;;;34.27;;
66927;SDS011;59882;45.624;11.698;2023-03-08T03:34:23;77.05;;;32.25;;
66927;SDS011;59882;45.624;11.698;2023-03-08T03:36:49;86.50;;;33.80;;
66927;SDS011;59882;45.624;11.698;2023-03-08T03:39:14;84.37;;;34.10;;
66927;SDS011;59882;45.624;11.698;2023-03-08T03:41:40;90.90;;;33.87;;
66927;SDS011;59882;45.624;11.698;2023-03-08T03:44:06;86.20;;;33.43;;
66927;SDS011;59882;45.624;11.698;2023-03-08T03:46:31;87.63;;;32.58;;
66927;SDS011;59882;45.624;11.698;2023-03-08T03:48:57;86.73;;;33.13;;
66927;SDS011;59882;45.624;11.698;2023-03-08T03:51:23;81.07;;;31.05;;
66927;SDS011;59882;45.624;11.698;2023-03-08T03:53:48;82.50;;;30.93;;
66927;SDS011;59882;45.624;11.698;2023-03-08T03:56:15;82.85;;;31.63;;
66927;SDS011;59882;45.624;11.698;2023-03-08T03:58:43;86.88;;;31.10;;
66927;SDS011;59882;45.624;11.698;2023-03-08T04:01:17;84.30;;;32.50;;
66927;SDS011;59882;45.624;11.698;2023-03-08T04:03:50;79.97;;;28.90;;
66927;SDS011;59882;45.624;11.698;2023-03-08T04:06:21;82.97;;;31.75;;
66927;SDS011;59882;45.624;11.698;2023-03-08T04:08:50;84.07;;;31.77;;
66927;SDS011;59882;45.624;11.698;2023-03-08T04:11:18;83.82;;;32.00;;
66927;SDS011;59882;45.624;11.698;2023-03-08T04:13:46;84.27;;;31.87;;
66927;SDS011;59882;45.624;11.698;2023-03-08T04:16:13;84.00;;;31.80;;
66927;SDS011;59882;45.624;11.698;2023-03-08T04:18:39;86.03;;;32.15;;
66927;SDS011;59882;45.624;11.698;2023-03-08T04:21:05;82.53;;;30.42;;
66927;SDS011;59882;45.624;11.698;2023-03-08T04:23:31;84.50;;;32.67;;
66927;SDS011;59882;45.624;11.698;2023-03-08T04:25:57;82.43;;;30.60;;
66927;SDS011;59882;45.624;11.698;2023-03-08T04:28:23;83.68;;;28.20;;
66927;SDS011;59882;45.624;11.698;2023-03-08T04:30:49;82.43;;;29.07;;
66927;SDS011;59882;45.624;11.698;2023-03-08T04:33:15;79.60;;;28.38;;
66927;SDS011;59882;45.624;11.698;2023-03-08T04:35:40;83.80;;;28.97;;
66927;SDS011;59882;45.624;11.698;2023-03-08T04:38:06;77.75;;;26.35;;
66927;SDS011;59882;45.624;11.698;2023-03-08T04:40:32;81.30;;;27.33;;
66927;SDS011;59882;45.624;11.698;2023-03-08T04:43:17;76.70;;;26.55;;
66927;SDS011;59882;45.624;11.698;2023-03-08T04:45:43;75.77;;;26.13;;
66927;SDS011;59882;45.624;11.698;2023-03-08T04:48:08;74.63;;;25.17;;
66927;SDS011;59882;45.624;11.698;2023-03-08T04:50:34;80.43;;;28.10;;
66927;SDS011;59882;45.624;11.698;2023-03-08T04:52:59;75.17;;;25.47;;
66927;SDS011;59882;45.624;11.698;2023-03-08T04:55:25;82.05;;;27.67;;
66927;SDS011;59882;45.624;11.698;2023-03-08T04:57:51;77.13;;;25.60;;
66927;SDS011;59882;45.624;11.698;2023-03-08T05:00:16;75.47;;;24.55;;
66927;SDS011;59882;45.624;11.698;2023-03-08T05:02:42;80.83;;;25.50;;
66927;SDS011;59882;45.624;11.698;2023-03-08T05:05:07;73.10;;;26.10;;
66927;SDS011;59882;45.624;11.698;2023-03-08T05:07:33;78.07;;;26.33;;
66927;SDS011;59882;45.624;11.698;2023-03-08T05:09:59;78.67;;;26.83;;
66927;SDS011;59882;45.624;11.698;2023-03-08T05:12:24;82.07;;;26.55;;
66927;SDS011;59882;45.624;11.698;2023-03-08T05:14:50;76.00;;;26.67;;
66927;SDS011;59882;45.624;11.698;2023-03-08T05:17:16;78.35;;;25.92;;
66927;SDS011;59882;45.624;11.698;2023-03-08T05:19:41;74.97;;;26.30;;
66927;SDS011;59882;45.624;11.698;2023-03-08T05:22:07;81.25;;;28.40;;
66927;SDS011;59882;45.624;11.698;2023-03-08T05:24:33;80.37;;;27.53;;
66927;SDS011;59882;45.624;11.698;2023-03-08T05:26:58;68.10;;;24.42;;
66927;SDS011;59882;45.624;11.698;2023-03-08T05:29:24;73.43;;;24.70;;
66927;SDS011;59882;45.624;11.698;2023-03-08T05:31:49;78.67;;;26.20;;
66927;SDS011;59882;45.624;11.698;2023-03-08T05:34:15;78.60;;;27.38;;
66927;SDS011;59882;45.624;11.698;2023-03-08T05:36:41;75.83;;;25.33;;
66927;SDS011;59882;45.624;11.698;2023-03-08T05:39:07;49.33;;;23.30;;
66927;SDS011;59882;45.624;11.698;2023-03-08T05:41:33;77.25;;;26.00;;
66927;SDS011;59882;45.624;11.698;2023-03-08T05:44:01;73.63;;;24.03;;
66927;SDS011;59882;45.624;11.698;2023-03-08T05:46:27;69.85;;;25.13;;
66927;SDS011;59882;45.624;11.698;2023-03-08T05:48:52;75.80;;;23.33;;
66927;SDS011;59882;45.624;11.698;2023-03-08T05:51:18;78.40;;;26.43;;
66927;SDS011;59882;45.624;11.698;2023-03-08T05:53:44;77.70;;;26.00;;
66927;SDS011;59882;45.624;11.698;2023-03-08T05:56:11;81.13;;;26.92;;
66927;SDS011;59882;45.624;11.698;2023-03-08T05:58:37;77.65;;;26.42;;
66927;SDS011;59882;45.624;11.698;2023-03-08T06:01:09;84.88;;;28.25;;
66927;SDS011;59882;45.624;11.698;2023-03-08T06:03:43;79.80;;;27.83;;
66927;SDS011;59882;45.624;11.698;2023-03-08T06:06:10;80.82;;;28.20;;
66927;SDS011;59882;45.624;11.698;2023-03-08T06:08:36;80.57;;;26.65;;
66927;SDS011;59882;45.624;11.698;2023-03-08T06:11:03;82.63;;;25.73;;
66927;SDS011;59882;45.624;11.698;2023-03-08T06:13:29;87.93;;;28.23;;
66927;SDS011;59882;45.624;11.698;2023-03-08T06:15:55;78.03;;;25.37;;
66927;SDS011;59882;45.624;11.698;2023-03-08T06:18:22;78.13;;;26.73;;
66927;SDS011;59882;45.624;11.698;2023-03-08T06:20:58;79.13;;;26.95;;
66927;SDS011;59882;45.624;11.698;2023-03-08T06:23:29;77.63;;;26.47;;
66927;SDS011;59882;45.624;11.698;2023-03-08T06:25:56;81.20;;;25.92;;
66927;SDS011;59882;45.624;11.698;2023-03-08T06:28:22;84.22;;;26.75;;
66927;SDS011;59882;45.624;11.698;2023-03-08T06:30:48;76.80;;;26.17;;
66927;SDS011;59882;45.624;11.698;2023-03-08T06:33:18;79.38;;;27.85;;
66927;SDS011;59882;45.624;11.698;2023-03-08T06:38:20;50.53;;;23.73;;
66927;SDS011;59882;45.624;11.698;2023-03-08T06:40:46;74.10;;;24.97;;
66927;SDS011;59882;45.624;11.698;2023-03-08T06:43:12;77.90;;;25.20;;
66927;SDS011;59882;45.624;11.698;2023-03-08T06:45:37;81.33;;;24.90;;
66927;SDS011;59882;45.624;11.698;2023-03-08T06:48:03;77.97;;;26.38;;
66927;SDS011;59882;45.624;11.698;2023-03-08T06:50:29;85.70;;;26.93;;
66927;SDS011;59882;45.624;11.698;2023-03-08T06:52:54;77.78;;;26.25;;
66927;SDS011;59882;45.624;11.698;2023-03-08T06:55:20;81.47;;;26.23;;
66927;SDS011;59882;45.624;11.698;2023-03-08T06:57:46;79.65;;;25.60;;
66927;SDS011;59882;45.624;11.698;2023-03-08T07:00:12;70.32;;;25.58;;
66927;SDS011;59882;45.624;11.698;2023-03-08T07:02:38;76.70;;;25.00;;
66927;SDS011;59882;45.624;11.698;2023-03-08T07:05:04;80.72;;;24.17;;
66927;SDS011;59882;45.624;11.698;2023-03-08T07:07:30;78.28;;;25.55;;
66927;SDS011;59882;45.624;11.698;2023-03-08T07:09:55;81.57;;;26.80;;
66927;SDS011;59882;45.624;11.698;2023-03-08T07:12:22;79.97;;;26.40;;
66927;SDS011;59882;45.624;11.698;2023-03-08T07:14:47;78.73;;;23.97;;
66927;SDS011;59882;45.624;11.698;2023-03-08T07:17:15;75.90;;;22.77;;
66927;SDS011;59882;45.624;11.698;2023-03-08T07:19:40;51.03;;;22.02;;
66927;SDS011;59882;45.624;11.698;2023-03-08T07:22:06;76.97;;;24.40;;
66927;SDS011;59882;45.624;11.698;2023-03-08T07:24:32;88.57;;;25.60;;
66927;SDS011;59882;45.624;11.698;2023-03-08T07:26:57;146.03;;;61.73;;
66927;SDS011;59882;45.624;11.698;2023-03-08T07:29:23;105.30;;;39.23;;
66927;SDS011;59882;45.624;11.698;2023-03-08T07:31:48;79.97;;;29.92;;
66927;SDS011;59882;45.624;11.698;2023-03-08T07:34:14;88.03;;;26.63;;
66927;SDS011;59882;45.624;11.698;2023-03-08T07:36:40;92.85;;;38.78;;
66927;SDS011;59882;45.624;11.698;2023-03-08T07:39:05;83.13;;;34.57;;
66927;SDS011;59882;45.624;11.698;2023-03-08T07:41:31;85.93;;;27.40;;
66927;SDS011;59882;45.624;11.698;2023-03-08T07:43:58;75.82;;;25.42;;
66927;SDS011;59882;45.624;11.698;2023-03-08T07:46:24;82.45;;;33.90;;
66927;SDS011;59882;45.624;11.698;2023-03-08T07:48:51;90.60;;;37.17;;
66927;SDS011;59882;45.624;11.698;2023-03-08T07:51:17;94.32;;;39.70;;
66927;SDS011;59882;45.624;11.698;2023-03-08T07:53:43;121.13;;;48.92;;
66927;SDS011;59882;45.624;11.698;2023-03-08T07:56:09;108.67;;;44.57;;
66927;SDS011;59882;45.624;11.698;2023-03-08T07:58:35;85.13;;;31.83;;
66927;SDS011;59882;45.624;11.698;2023-03-08T08:01:06;94.50;;;32.50;;
66927;SDS011;59882;45.624;11.698;2023-03-08T08:03:35;84.53;;;30.73;;
66927;SDS011;59882;45.624;11.698;2023-03-08T08:06:02;89.65;;;35.13;;
66927;SDS011;59882;45.624;11.698;2023-03-08T08:08:28;93.73;;;38.90;;
66927;SDS011;59882;45.624;11.698;2023-03-08T08:10:54;91.85;;;40.90;;
66927;SDS011;59882;45.624;11.698;2023-03-08T08:13:20;102.60;;;38.67;;
66927;SDS011;59882;45.624;11.698;2023-03-08T08:15:45;101.40;;;34.17;;
66927;SDS011;59882;45.624;11.698;2023-03-08T08:18:11;78.27;;;34.60;;
66927;SDS011;59882;45.624;11.698;2023-03-08T08:20:36;105.33;;;35.33;;
66927;SDS011;59882;45.624;11.698;2023-03-08T08:23:04;88.68;;;31.77;;
66927;SDS011;59882;45.624;11.698;2023-03-08T08:25:30;89.05;;;32.38;;
66927;SDS011;59882;45.624;11.698;2023-03-08T08:27:56;87.40;;;29.70;;
66927;SDS011;59882;45.624;11.698;2023-03-08T08:30:21;84.53;;;28.80;;
66927;SDS011;59882;45.624;11.698;2023-03-08T08:32:47;90.13;;;34.00;;
66927;SDS011;59882;45.624;11.698;2023-03-08T08:35:13;84.43;;;30.97;;
66927;SDS011;59882;45.624;11.698;2023-03-08T08:37:39;79.90;;;29.73;;
66927;SDS011;59882;45.624;11.698;2023-03-08T08:40:04;89.87;;;29.30;;
66927;SDS011;59882;45.624;11.698;2023-03-08T08:42:32;85.68;;;29.30;;
66927;SDS011;59882;45.624;11.698;2023-03-08T08:44:57;52.75;;;26.90;;
66927;SDS011;59882;45.624;11.698;2023-03-08T08:47:23;85.73;;;28.67;;
66927;SDS011;59882;45.624;11.698;2023-03-08T08:49:48;81.03;;;26.80;;
66927;SDS011;59882;45.624;11.698;2023-03-08T08:52:15;76.13;;;25.57;;
66927;SDS011;59882;45.624;11.698;2023-03-08T08:54:41;83.32;;;27.77;;
66927;SDS011;59882;45.624;11.698;2023-03-08T08:57:06;79.47;;;23.90;;
66927;SDS011;59882;45.624;11.698;2023-03-08T08:59:32;79.75;;;25.23;;
66927;SDS011;59882;45.624;11.698;2023-03-08T09:01:58;48.50;;;22.03;;
66927;SDS011;59882;45.624;11.698;2023-03-08T09:04:23;74.05;;;23.27;;
66927;SDS011;59882;45.624;11.698;2023-03-08T09:06:49;76.10;;;24.10;;
66927;SDS011;59882;45.624;11.698;2023-03-08T09:09:17;71.35;;;23.42;;
66927;SDS011;59882;45.624;11.698;2023-03-08T09:11:43;70.35;;;22.10;;
66927;SDS011;59882;45.624;11.698;2023-03-08T09:14:11;77.45;;;23.88;;
66927;SDS011;59882;45.624;11.698;2023-03-08T09:16:37;76.80;;;24.50;;
66927;SDS011;59882;45.624;11.698;2023-03-08T09:19:03;76.82;;;24.58;;
66927;SDS011;59882;45.624;11.698;2023-03-08T09:21:29;75.83;;;27.27;;
66927;SDS011;59882;45.624;11.698;2023-03-08T09:23:58;78.68;;;24.35;;
66927;SDS011;59882;45.624;11.698;2023-03-08T09:26:27;74.47;;;25.73;;
66927;SDS011;59882;45.624;11.698;2023-03-08T09:28:53;75.50;;;25.30;;
66927;SDS011;59882;45.624;11.698;2023-03-08T09:31:19;52.73;;;23.00;;
66927;SDS011;59882;45.624;11.698;2023-03-08T09:33:48;47.53;;;21.33;;
66927;SDS011;59882;45.624;11.698;2023-03-08T09:36:18;75.00;;;21.70;;
66927;SDS011;59882;45.624;11.698;2023-03-08T09:38:47;47.75;;;20.05;;
66927;SDS011;59882;45.624;11.698;2023-03-08T09:46:37;74.47;;;21.98;;
66927;SDS011;59882;45.624;11.698;2023-03-08T09:49:26;77.00;;;22.57;;
66927;SDS011;59882;45.624;11.698;2023-03-08T09:54:34;71.05;;;22.10;;
66927;SDS011;59882;45.624;11.698;2023-03-08T09:57:04;73.07;;;22.85;;
66927;SDS011;59882;45.624;11.698;2023-03-08T09:59:40;70.00;;;21.58;;
66927;SDS011;59882;45.624;11.698;2023-03-08T10:08:17;70.82;;;21.80;;
66927;SDS011;59882;45.624;11.698;2023-03-08T10:10:59;71.53;;;21.27;;
66927;SDS011;59882;45.624;11.698;2023-03-08T10:18:34;73.97;;;21.75;;
66927;SDS011;59882;45.624;11.698;2023-03-08T10:21:09;71.07;;;22.33;;
66927;SDS011;59882;45.624;11.698;2023-03-08T10:23:37;72.68;;;23.52;;
66927;SDS011;59882;45.624;11.698;2023-03-08T10:26:08;74.80;;;21.67;;
66927;SDS011;59882;45.624;11.698;2023-03-08T10:28:36;73.03;;;23.77;;
66927;SDS011;59882;45.624;11.698;2023-03-08T10:31:01;74.43;;;23.90;;
66927;SDS011;59882;45.624;11.698;2023-03-08T10:33:40;77.20;;;23.25;;
66927;SDS011;59882;45.624;11.698;2023-03-08T10:36:07;73.60;;;23.53;;
66927;SDS011;59882;45.624;11.698;2023-03-08T10:38:41;70.60;;;24.20;;
66927;SDS011;59882;45.624;11.698;2023-03-08T10:43:44;70.55;;;22.35;;
66927;SDS011;59882;45.624;11.698;2023-03-08T10:46:14;74.80;;;24.60;;
66927;SDS011;59882;45.624;11.698;2023-03-08T10:48:41;77.40;;;23.90;;
66927;SDS011;59882;45.624;11.698;2023-03-08T10:51:49;72.30;;;22.63;;
66927;SDS011;59882;45.624;11.698;2023-03-08T10:54:01;74.55;;;22.13;;
66927;SDS011;59882;45.624;11.698;2023-03-08T10:56:36;77.55;;;22.10;;
66927;SDS011;59882;45.624;11.698;2023-03-08T10:59:45;73.53;;;22.45;;
66927;SDS011;59882;45.624;11.698;2023-03-08T11:04:38;72.35;;;21.52;;
66927;SDS011;59882;45.624;11.698;2023-03-08T11:07:31;72.32;;;21.35;;
66927;SDS011;59882;45.624;11.698;2023-03-08T11:10:14;73.70;;;23.00;;
66927;SDS011;59882;45.624;11.698;2023-03-08T11:12:42;73.60;;;23.45;;
66927;SDS011;59882;45.624;11.698;2023-03-08T11:15:15;72.07;;;22.17;;
66927;SDS011;59882;45.624;11.698;2023-03-08T11:18:06;72.78;;;24.10;;
66927;SDS011;59882;45.624;11.698;2023-03-08T11:20:39;73.95;;;22.52;;
66927;SDS011;59882;45.624;11.698;2023-03-08T11:23:25;74.80;;;22.88;;
66927;SDS011;59882;45.624;11.698;2023-03-08T11:26:26;75.95;;;23.50;;
66927;SDS011;59882;45.624;11.698;2023-03-08T11:29:13;71.33;;;20.93;;
66927;SDS011;59882;45.624;11.698;2023-03-08T11:34:49;81.80;;;22.80;;
66927;SDS011;59882;45.624;11.698;2023-03-08T11:37:41;73.70;;;21.90;;
66927;SDS011;59882;45.624;11.698;2023-03-08T11:43:07;81.33;;;23.23;;
66927;SDS011;59882;45.624;11.698;2023-03-08T11:53:45;71.97;;;21.10;;
66927;SDS011;59882;45.624;11.698;2023-03-08T11:56:28;61.17;;;21.50;;
66927;SDS011;59882;45.624;11.698;2023-03-08T11:59:18;78.88;;;23.58;;
66927;SDS011;59882;45.624;11.698;2023-03-08T12:04:42;74.82;;;21.15;;
66927;SDS011;59882;45.624;11.698;2023-03-08T12:07:21;79.57;;;22.48;;
66927;SDS011;59882;45.624;11.698;2023-03-08T12:12:40;78.18;;;23.33;;
66927;SDS011;59882;45.624;11.698;2023-03-08T12:17:50;82.30;;;22.10;;
66927;SDS011;59882;45.624;11.698;2023-03-08T12:20:19;75.57;;;21.40;;
66927;SDS011;59882;45.624;11.698;2023-03-08T12:22:53;78.10;;;21.57;;
66927;SDS011;59882;45.624;11.698;2023-03-08T12:25:34;75.57;;;20.60;;
66927;SDS011;59882;45.624;11.698;2023-03-08T12:31:00;77.15;;;21.23;;
66927;SDS011;59882;45.624;11.698;2023-03-08T12:33:37;78.97;;;21.15;;
66927;SDS011;59882;45.624;11.698;2023-03-08T12:36:04;73.90;;;20.13;;
66927;SDS011;59882;45.624;11.698;2023-03-08T12:41:03;63.83;;;20.20;;
66927;SDS011;59882;45.624;11.698;2023-03-08T12:43:42;61.50;;;19.67;;
66927;SDS011;59882;45.624;11.698;2023-03-08T12:46:09;60.50;;;20.47;;
66927;SDS011;59882;45.624;11.698;2023-03-08T12:48:39;28.27;;;18.17;;
66927;SDS011;59882;45.624;11.698;2023-03-08T12:53:40;56.72;;;21.70;;
66927;SDS011;59882;45.624;11.698;2023-03-08T12:58:46;61.60;;;21.30;;
66927;SDS011;59882;45.624;11.698;2023-03-08T13:03:57;59.10;;;20.75;;
66927;SDS011;59882;45.624;11.698;2023-03-08T13:06:48;62.17;;;20.88;;
66927;SDS011;59882;45.624;11.698;2023-03-08T13:09:25;65.00;;;21.00;;
66927;SDS011;59882;45.624;11.698;2023-03-08T13:11:58;25.20;;;18.10;;
66927;SDS011;59882;45.624;11.698;2023-03-08T13:14:58;27.83;;;18.00;;
66927;SDS011;59882;45.624;11.698;2023-03-08T13:17:29;24.73;;;16.75;;
66927;SDS011;59882;45.624;11.698;2023-03-08T13:19:57;27.17;;;15.15;;
66927;SDS011;59882;45.624;11.698;2023-03-08T13:28:41;24.33;;;15.73;;
66927;SDS011;59882;45.624;11.698;2023-03-08T13:31:13;57.38;;;18.13;;
66927;SDS011;59882;45.624;11.698;2023-03-08T13:33:46;60.38;;;19.50;;
66927;SDS011;59882;45.624;11.698;2023-03-08T13:36:17;57.83;;;18.90;;
66927;SDS011;59882;45.624;11.698;2023-03-08T13:38:53;32.17;;;20.90;;
66927;SDS011;59882;45.624;11.698;2023-03-08T13:44:02;23.02;;;15.20;;
66927;SDS011;59882;45.624;11.698;2023-03-08T13:46:33;58.13;;;19.55;;
66927;SDS011;59882;45.624;11.698;2023-03-08T13:49:00;58.23;;;18.53;;
66927;SDS011;59882;45.624;11.698;2023-03-08T13:51:26;21.08;;;15.30;;
66927;SDS011;59882;45.624;11.698;2023-03-08T13:53:53;57.25;;;19.35;;
66927;SDS011;59882;45.624;11.698;2023-03-08T13:56:24;24.17;;;17.02;;
66927;SDS011;59882;45.624;11.698;2023-03-08T13:58:52;24.80;;;15.87;;
66927;SDS011;59882;45.624;11.698;2023-03-08T14:01:24;19.48;;;13.68;;
66927;SDS011;59882;45.624;11.698;2023-03-08T14:03:51;20.45;;;15.65;;
66927;SDS011;59882;45.624;11.698;2023-03-08T14:06:23;20.83;;;15.57;;
66927;SDS011;59882;45.624;11.698;2023-03-08T14:08:53;19.38;;;12.82;;
66927;SDS011;59882;45.624;11.698;2023-03-08T14:11:41;20.53;;;13.37;;
66927;SDS011;59882;45.624;11.698;2023-03-08T14:14:12;19.08;;;12.80;;
66927;SDS011;59882;45.624;11.698;2023-03-08T14:16:44;16.80;;;11.82;;
66927;SDS011;59882;45.624;11.698;2023-03-08T14:19:32;19.30;;;13.32;;
66927;SDS011;59882;45.624;11.698;2023-03-08T14:22:00;20.92;;;12.80;;
66927;SDS011;59882;45.624;11.698;2023-03-08T14:24:32;18.30;;;13.67;;
66927;SDS011;59882;45.624;11.698;2023-03-08T14:27:00;21.52;;;13.50;;
66927;SDS011;59882;45.624;11.698;2023-03-08T14:29:38;23.30;;;15.10;;
66927;SDS011;59882;45.624;11.698;2023-03-08T14:37:13;22.87;;;15.20;;
66927;SDS011;59882;45.624;11.698;2023-03-08T14:39:46;19.00;;;15.27;;
66927;SDS011;59882;45.624;11.698;2023-03-08T14:42:34;21.50;;;14.50;;
66927;SDS011;59882;45.624;11.698;2023-03-08T14:45:14;28.50;;;16.38;;
66927;SDS011;59882;45.624;11.698;2023-03-08T14:48:00;24.90;;;16.25;;
66927;SDS011;59882;45.624;11.698;2023-03-08T14:53:34;24.00;;;15.32;;
66927;SDS011;59882;45.624;11.698;2023-03-08T14:56:05;25.77;;;16.73;;
66927;SDS011;59882;45.624;11.698;2023-03-08T14:58:39;26.23;;;15.63;;
66927;SDS011;59882;45.624;11.698;2023-03-08T15:01:21;25.92;;;16.80;;
66927;SDS011;59882;45.624;11.698;2023-03-08T15:03:52;27.43;;;17.67;;
66927;SDS011;59882;45.624;11.698;2023-03-08T15:06:23;27.75;;;18.15;;
66927;SDS011;59882;45.624;11.698;2023-03-08T15:08:52;24.83;;;16.48;;
66927;SDS011;59882;45.624;11.698;2023-03-08T15:11:18;26.13;;;16.92;;
66927;SDS011;59882;45.624;11.698;2023-03-08T15:13:44;25.90;;;17.13;;
66927;SDS011;59882;45.624;11.698;2023-03-08T15:16:10;30.63;;;17.40;;
66927;SDS011;59882;45.624;11.698;2023-03-08T15:18:36;29.25;;;18.52;;
66927;SDS011;59882;45.624;11.698;2023-03-08T15:21:01;27.83;;;17.40;;
66927;SDS011;59882;45.624;11.698;2023-03-08T15:23:32;24.95;;;14.05;;
66927;SDS011;59882;45.624;11.698;2023-03-08T15:26:00;26.27;;;13.68;;
66927;SDS011;59882;45.624;11.698;2023-03-08T15:28:29;26.02;;;13.27;;
66927;SDS011;59882;45.624;11.698;2023-03-08T15:30:54;18.17;;;11.63;;
66927;SDS011;59882;45.624;11.698;2023-03-08T15:33:20;19.37;;;11.97;;
66927;SDS011;59882;45.624;11.698;2023-03-08T15:35:47;19.92;;;11.93;;
66927;SDS011;59882;45.624;11.698;2023-03-08T15:38:14;20.40;;;12.50;;
66927;SDS011;59882;45.624;11.698;2023-03-08T15:40:41;25.23;;;12.45;;
66927;SDS011;59882;45.624;11.698;2023-03-08T15:43:07;17.77;;;10.93;;